Time;durP1;ratioP1;P1;durP2;ratioP2;P2;SDS_P1;SDS_P2;PMS_P1;PMS_P2;Temp;Humidity;BMP_temperature;BMP_pressure;BME280_temperature;BME280_humidity;BME280_pressure;Samples;Min_cycle;Max_cycle;Signal;HPM_P1;HPM_P2
2021/07/08 00:02:14;;;;;;;8.82;7.93;;;;;;;26.74;100.00;96516.81;5057472;28;20079;-53
2021/07/08 00:04:43;;;;;;;11.27;8.35;;;;;;;26.81;100.00;96526.66;5068593;28;20080;-55
2021/07/08 00:07:11;;;;;;;10.50;8.48;;;;;;;26.57;100.00;96525.97;5052127;28;20086;-52
2021/07/08 00:09:40;;;;;;;11.57;8.38;;;;;;;27.22;100.00;96533.53;5067331;28;20064;-54
2021/07/08 00:12:09;;;;;;;10.32;8.52;;;;;;;27.22;100.00;96528.13;5062463;28;20064;-54
2021/07/08 00:14:39;;;;;;;12.18;8.18;;;;;;;26.61;100.00;96522.53;5050697;28;20033;-52
2021/07/08 00:17:08;;;;;;;10.48;7.85;;;;;;;26.81;100.00;96527.47;5065354;28;20458;-54
2021/07/08 00:19:36;;;;;;;8.85;7.10;;;;;;;26.93;100.00;96532.78;5068935;28;20068;-49
2021/07/08 00:22:05;;;;;;;9.45;7.20;;;;;;;26.47;100.00;96523.91;5067164;28;20067;-54
2021/07/08 00:24:34;;;;;;;10.00;7.13;;;;;;;26.63;100.00;96519.56;5068373;28;20068;-52
2021/07/08 00:27:02;;;;;;;10.00;7.70;;;;;;;26.82;100.00;96525.56;5065720;28;20056;-51
2021/07/08 00:29:31;;;;;;;8.20;7.40;;;;;;;26.75;100.00;96521.16;5065912;28;20056;-52
2021/07/08 00:32:01;;;;;;;8.98;6.68;;;;;;;26.14;100.00;96509.22;5067659;28;20080;-51
2021/07/08 00:34:29;;;;;;;;;;;;;;;26.37;100.00;96493.97;5068734;28;20084;-50
2021/07/08 00:36:58;;;;;;;10.70;6.68;;;;;;;26.46;100.00;96498.72;5065416;28;19959;-51
2021/07/08 00:39:27;;;;;;;9.13;6.85;;;;;;;26.24;100.00;96495.09;5066183;28;20522;-56
2021/07/08 00:41:56;;;;;;;8.38;6.88;;;;;;;25.69;100.00;96492.94;5071621;28;20060;-52
2021/07/08 00:44:24;;;;;;;8.77;6.82;;;;;;;26.08;100.00;96488.56;5065449;28;20064;-54
2021/07/08 00:46:52;;;;;;;8.50;6.65;;;;;;;26.21;100.00;96485.56;5065709;28;21319;-57
2021/07/08 00:49:22;;;;;;;11.13;6.95;;;;;;;26.64;100.00;96483.34;5070202;28;20060;-51
2021/07/08 00:51:50;;;;;;;9.80;6.53;;;;;;;26.32;100.00;96477.63;5065933;28;20068;-53
2021/07/08 00:54:19;;;;;;;8.35;6.75;;;;;;;26.45;100.00;96469.22;5064528;28;20068;-51
2021/07/08 00:56:47;;;;;;;7.90;6.45;;;;;;;26.51;100.00;96474.50;5067812;28;20139;-53
2021/07/08 00:59:42;;;;;;;8.05;6.75;;;;;;;26.74;100.00;96478.13;5067715;28;20043;-53
2021/07/08 01:02:12;;;;;;;7.93;6.85;;;;;;;26.40;100.00;96490.78;5054005;28;20533;-53
2021/07/08 01:04:43;;;;;;;8.35;6.88;;;;;;;26.37;100.00;96488.56;5068289;28;20439;-57
2021/07/08 01:07:12;;;;;;;8.32;7.00;;;;;;;26.35;100.00;96483.38;5065610;28;20095;-50
2021/07/08 01:09:42;;;;;;;9.60;6.78;;;;;;;26.49;100.00;96484.72;5065539;28;20073;-52
2021/07/08 01:12:11;;;;;;;8.68;6.90;;;;;;;26.83;100.00;96482.03;5064754;28;20076;-55
2021/07/08 01:14:40;;;;;;;10.50;7.30;;;;;;;26.79;100.00;96491.72;5064812;28;20036;-53
2021/07/08 01:17:09;;;;;;;13.65;7.60;;;;;;;26.79;100.00;96491.72;5064684;28;20076;-49
2021/07/08 01:19:40;;;;;;;10.68;7.65;;;;;;;26.66;100.00;96487.44;5068492;28;20079;-53
2021/07/08 01:22:11;;;;;;;10.35;7.18;;;;;;;26.84;100.00;96483.69;5065418;28;20429;-54
2021/07/08 01:24:39;;;;;;;11.85;7.80;;;;;;;26.69;100.00;96489.66;5064680;28;20060;-53
2021/07/08 01:27:08;;;;;;;10.23;6.82;;;;;;;26.70;100.00;96485.91;5064238;28;20361;-53
2021/07/08 01:29:36;;;;;;;8.75;6.85;;;;;;;26.77;100.00;96495.72;5066475;28;20441;-52
2021/07/08 01:32:06;;;;;;;14.30;7.20;;;;;;;26.98;100.00;96492.28;5065060;28;20506;-53
2021/07/08 01:34:34;;;;;;;8.73;6.97;;;;;;;27.13;100.00;96492.53;5068430;28;20067;-49
2021/07/08 01:37:03;;;;;;;8.32;7.15;;;;;;;27.11;100.00;96491.09;5064846;28;20060;-52
2021/07/08 01:39:33;;;;;;;9.38;6.93;;;;;;;26.82;100.00;96487.69;5065846;28;20056;-52
2021/07/08 01:42:02;;;;;;;8.18;6.25;;;;;;;26.81;100.00;96480.66;5064239;28;20522;-57
2021/07/08 01:44:30;;;;;;;8.15;6.57;;;;;;;26.54;100.00;96478.59;5064861;28;20064;-55
2021/07/08 01:46:58;;;;;;;11.05;6.60;;;;;;;26.27;100.00;96471.09;5066630;28;20075;-52
2021/07/08 01:49:27;;;;;;;9.75;6.72;;;;;;;26.41;100.00;96466.19;5067329;28;20078;-53
2021/07/08 01:51:55;;;;;;;13.02;6.78;;;;;;;26.46;100.00;96462.72;5063995;28;20068;-51
2021/07/08 01:54:24;;;;;;;8.57;6.93;;;;;;;26.78;100.00;96459.50;5063799;28;20510;-52
2021/07/08 01:56:54;;;;;;;9.18;6.40;;;;;;;26.62;100.00;96444.91;5065536;28;20067;-57
2021/07/08 01:59:22;;;;;;;11.38;6.82;;;;;;;26.21;100.00;96433.38;5065402;28;20052;-54
2021/07/08 02:01:51;;;;;;;10.20;6.45;;;;;;;25.93;100.00;96423.44;5064023;28;20683;-55
2021/07/08 02:04:19;;;;;;;10.70;6.50;;;;;;;26.20;100.00;96413.66;5068291;28;20082;-55
2021/07/08 02:06:47;;;;;;;10.68;6.55;;;;;;;26.48;100.00;96417.38;5063893;28;20083;-54
2021/07/08 02:09:16;;;;;;;8.27;6.70;;;;;;;26.67;100.00;96421.47;5064703;28;20068;-55
2021/07/08 02:11:45;;;;;;;11.15;6.50;;;;;;;26.40;100.00;96415.88;5065038;28;20931;-51
2021/07/08 02:14:15;;;;;;;9.98;6.45;;;;;;;26.18;100.00;96401.44;5066367;28;20087;-49
2021/07/08 02:16:44;;;;;;;10.82;6.30;;;;;;;26.23;100.00;96399.66;5064157;28;20040;-57
2021/07/08 02:19:13;;;;;;;7.00;6.30;;;;;;;26.75;100.00;96401.28;5065434;28;20320;-56
2021/07/08 02:21:41;;;;;;;6.63;5.90;;;;;;;26.66;100.00;96395.47;5051250;28;20039;-54
2021/07/08 02:24:10;;;;;;;9.05;6.15;;;;;;;26.36;100.00;96409.31;5063889;28;20068;-55
2021/07/08 02:26:38;;;;;;;10.52;6.30;;;;;;;26.44;100.00;96427.84;5049810;28;20072;-53
2021/07/08 02:29:07;;;;;;;10.90;5.95;;;;;;;26.43;100.00;96425.38;5069232;28;20060;-55
2021/07/08 02:31:37;;;;;;;6.32;5.72;;;;;;;26.74;100.00;96416.69;5071483;28;20107;-52
2021/07/08 02:34:05;;;;;;;7.05;6.00;;;;;;;27.32;100.00;96419.09;5067682;28;20534;-53
2021/07/08 02:36:34;;;;;;;9.82;6.35;;;;;;;26.87;100.00;96414.69;5068053;28;20060;-53
2021/07/08 02:39:02;;;;;;;7.68;6.30;;;;;;;26.43;100.00;96411.88;5069649;28;20106;-55
2021/07/08 02:41:30;;;;;;;7.53;6.03;;;;;;;26.94;100.00;96412.63;5069121;28;20060;-53
2021/07/08 02:43:59;;;;;;;7.03;6.32;;;;;;;25.55;100.00;96397.84;5068781;28;20084;-53
2021/07/08 02:46:27;;;;;;;7.00;6.30;;;;;;;25.85;100.00;96415.75;5070167;28;20676;-50
2021/07/08 02:48:57;;;;;;;8.75;6.38;;;;;;;26.15;100.00;96418.13;5068646;28;20076;-55
2021/07/08 02:51:25;;;;;;;7.68;6.18;;;;;;;26.72;100.00;96415.31;5068917;28;20075;-52
2021/07/08 02:53:54;;;;;;;7.03;6.40;;;;;;;27.25;100.00;96402.22;5067125;28;20068;-55
2021/07/08 02:56:22;;;;;;;8.15;5.93;;;;;;;27.10;100.00;96408.25;5068717;28;20064;-54
2021/07/08 02:58:51;;;;;;;6.93;6.05;;;;;;;27.60;100.00;96424.34;5072505;28;20545;-55
2021/07/08 03:01:19;;;;;;;7.47;6.25;;;;;;;27.57;100.00;96421.31;5069973;28;20084;-51
2021/07/08 03:03:47;;;;;;;6.32;5.68;;;;;;;27.60;100.00;96424.34;5065935;28;20075;-53
2021/07/08 03:06:17;;;;;;;6.05;5.50;;;;;;;28.06;100.00;96429.44;5068554;28;20060;-50
2021/07/08 03:08:45;;;;;;;9.98;6.82;;;;;;;28.24;100.00;96439.91;5069448;28;20067;-53
2021/07/08 03:11:14;;;;;;;9.20;6.38;;;;;;;28.30;100.00;96443.50;5066877;28;20541;-52
2021/07/08 03:13:43;;;;;;;8.27;6.15;;;;;;;28.27;100.00;96444.00;5070747;28;20095;-48
2021/07/08 03:16:11;;;;;;;10.48;6.15;;;;;;;28.09;100.00;96443.31;5069476;28;21367;-50
2021/07/08 03:18:40;;;;;;;7.35;6.05;;;;;;;28.13;100.00;96446.31;5069582;28;20060;-57
2021/07/08 03:21:09;;;;;;;8.32;5.90;;;;;;;28.34;100.00;96456.28;5068125;28;20473;-53
2021/07/08 03:23:38;;;;;;;7.07;6.30;;;;;;;28.23;100.00;96442.91;5066570;28;20103;-52
2021/07/08 03:26:07;;;;;;;11.32;6.00;;;;;;;28.32;100.00;96452.19;5068626;28;20082;-51
2021/07/08 03:28:35;;;;;;;7.97;6.40;;;;;;;27.88;100.00;96447.72;5069757;28;20068;-53
2021/07/08 03:31:03;;;;;;;9.00;6.15;;;;;;;27.62;100.00;96448.47;5068231;28;20076;-53
2021/07/08 03:33:32;;;;;;;11.98;6.15;;;;;;;27.39;100.00;96458.50;5067410;28;20069;-52
2021/07/08 03:36:00;;;;;;;7.45;5.85;;;;;;;27.71;100.00;96452.38;5067365;28;21563;-51
2021/07/08 03:38:29;;;;;;;9.43;5.75;;;;;;;27.84;100.00;96462.84;5068721;28;20057;-53
2021/07/08 03:40:59;;;;;;;9.30;5.85;;;;;;;28.29;100.00;96453.53;5065690;28;20431;-54
2021/07/08 03:43:27;;;;;;;7.38;5.13;;;;;;;28.10;100.00;96455.78;5071092;28;20076;-52
2021/07/08 03:45:55;;;;;;;6.88;5.65;;;;;;;27.92;100.00;96458.84;5053243;28;20067;-54
2021/07/08 03:48:24;;;;;;;8.65;5.88;;;;;;;28.08;100.00;96455.25;5066841;28;20510;-52
2021/07/08 03:50:53;;;;;;;6.78;5.80;;;;;;;28.21;100.00;96453.16;5066053;28;20442;-52
2021/07/08 03:53:21;;;;;;;7.07;5.90;;;;;;;28.00;100.00;96450.25;5067964;28;20064;-53
2021/07/08 03:55:49;;;;;;;11.82;6.32;;;;;;;28.28;100.00;96451.88;5067064;28;20072;-53
2021/07/08 03:58:19;;;;;;;6.85;5.63;;;;;;;28.15;100.00;96460.47;5069589;28;20094;-55
2021/07/08 04:00:48;;;;;;;7.15;5.75;;;;;;;27.58;100.00;96467.09;5065844;28;20072;-57
2021/07/08 04:03:17;;;;;;;6.95;6.20;;;;;;;27.19;100.00;96474.47;5066632;28;20067;-54
2021/07/08 04:05:47;;;;;;;6.10;5.50;;;;;;;26.44;100.00;96478.41;5067056;28;20475;-55
2021/07/08 04:08:17;;;;;;;11.63;5.43;;;;;;;26.79;100.00;96478.19;5066515;28;20044;-52
2021/07/08 04:10:46;;;;;;;6.32;5.32;;;;;;;27.64;100.00;96476.94;5067609;28;20079;-55
2021/07/08 04:13:17;;;;;;;7.43;5.15;;;;;;;27.97;100.00;96475.16;5067485;28;20080;-51
2021/07/08 04:15:49;;;;;;;7.28;4.80;;;;;;;28.13;100.00;96463.41;5064940;28;20537;-50
2021/07/08 04:18:18;;;;;;;6.75;4.88;;;;;;;27.83;100.00;96471.22;5068082;28;20072;-55
2021/07/08 04:20:47;;;;;;;10.80;4.75;;;;;;;28.11;100.00;96468.28;5048329;28;20070;-54
2021/07/08 04:23:16;;;;;;;6.82;4.97;;;;;;;27.96;100.00;96478.16;5052293;28;20066;-55
2021/07/08 04:25:44;;;;;;;6.38;4.97;;;;;;;27.96;100.00;96478.97;5067654;28;20446;-54
2021/07/08 04:28:13;;;;;;;7.45;5.25;;;;;;;28.05;100.00;96485.56;5067378;28;20080;-53
2021/07/08 04:30:42;;;;;;;7.75;4.93;;;;;;;27.61;100.00;96476.63;5065921;28;20075;-51
2021/07/08 04:33:18;;;;;;;5.45;4.95;;;;;;;27.04;100.00;96480.44;5066347;28;20107;-52
2021/07/08 04:35:46;;;;;;;7.03;4.82;;;;;;;27.11;100.00;96483.78;5066229;28;20481;-51
2021/07/08 04:38:15;;;;;;;7.32;4.90;;;;;;;26.83;100.00;96500.16;5065062;28;20522;-54
2021/07/08 04:40:44;;;;;;;6.68;4.90;;;;;;;26.81;100.00;96497.72;5066063;28;20558;-54
2021/07/08 04:43:14;;;;;;;7.18;5.05;;;;;;;27.23;100.00;96508.09;5069709;28;20565;-51
2021/07/08 04:45:43;;;;;;;9.77;5.15;;;;;;;27.38;100.00;96499.34;5065415;28;20064;-55
2021/07/08 04:48:13;;;;;;;7.35;5.25;;;;;;;27.11;100.00;96496.50;5065806;28;20145;-53
2021/07/08 04:50:43;;;;;;;7.53;5.07;;;;;;;27.48;100.00;96501.38;5064198;28;20083;-51
2021/07/08 04:53:15;;;;;;;8.25;5.72;;;;;;;27.35;100.00;96494.44;5064528;28;20060;-53
2021/07/08 04:55:44;;;;;;;12.43;5.70;;;;;;;27.36;100.00;96488.78;5065678;28;20068;-55
2021/07/08 04:58:13;;;;;;;8.90;5.43;;;;;;;27.16;100.00;96492.03;5068160;28;20084;-53
2021/07/08 05:00:41;;;;;;;14.82;5.78;;;;;;;27.85;100.00;96485.34;5060819;28;20072;-55
2021/07/08 05:03:10;;;;;;;6.72;5.68;;;;;;;27.40;100.00;96492.63;5065289;28;20467;-54
2021/07/08 05:05:39;;;;;;;8.60;5.90;;;;;;;27.43;100.00;96489.41;5065463;28;20082;-52
2021/07/08 05:08:08;;;;;;;10.15;6.28;;;;;;;27.59;100.00;96485.00;5067628;28;20072;-51
2021/07/08 05:10:37;;;;;;;7.53;6.80;;;;;;;27.71;100.00;96474.03;5068564;28;20080;-49
2021/07/08 05:13:05;;;;;;;7.22;6.53;;;;;;;27.73;100.00;96473.78;5064824;28;20079;-52
2021/07/08 05:15:35;;;;;;;9.23;7.05;;;;;;;27.29;100.00;96471.06;5065905;28;20060;-48
2021/07/08 05:18:04;;;;;;;8.80;7.38;;;;;;;27.35;100.00;96483.59;5076097;22;20697;-48
2021/07/08 05:20:33;;;;;;;8.23;7.43;;;;;;;27.41;100.00;96478.00;5062554;28;20068;-55
2021/07/08 05:23:02;;;;;;;9.13;8.23;;;;;;;27.84;100.00;96475.56;5063617;28;20561;-52
2021/07/08 05:25:32;;;;;;;12.20;8.25;;;;;;;28.33;100.00;96476.34;5065683;28;20064;-51
2021/07/08 05:28:01;;;;;;;9.02;8.18;;;;;;;27.75;100.00;96482.50;5062066;28;20452;-49
2021/07/08 05:30:29;;;;;;;8.63;7.80;;;;;;;28.28;100.00;96489.84;5058591;28;20072;-50
2021/07/08 05:32:59;;;;;;;8.95;8.10;;;;;;;28.26;100.00;96483.88;5059263;28;20064;-54
2021/07/08 05:35:28;;;;;;;9.57;8.10;;;;;;;28.34;100.00;96482.59;5063018;28;20075;-49
2021/07/08 05:37:56;;;;;;;8.82;7.57;;;;;;;27.69;100.00;96489.72;5062305;28;20088;-55
2021/07/08 05:40:25;;;;;;;8.68;7.47;;;;;;;28.18;100.00;96489.75;5056771;28;20137;-56
2021/07/08 05:42:55;;;;;;;10.57;8.40;;;;;;;28.47;100.00;96484.09;5059968;28;20052;-56
2021/07/08 05:45:24;;;;;;;;;;;;;;;28.60;100.00;96478.25;5058713;28;20451;-51
2021/07/08 05:47:52;;;;;;;11.50;8.88;;;;;;;28.84;100.00;96471.38;5057451;28;19952;-50
2021/07/08 05:50:22;;;;;;;8.07;7.35;;;;;;;29.18;100.00;96484.66;5060349;28;20112;-50
2021/07/08 05:52:50;;;;;;;9.05;8.15;;;;;;;29.19;100.00;96474.63;5060496;28;20439;-57
2021/07/08 05:55:19;;;;;;;12.38;7.47;;;;;;;29.10;100.00;96471.56;5064084;28;20072;-53
2021/07/08 05:57:54;;;;;;;9.18;6.93;;;;;;;28.97;100.00;96469.28;5060153;28;20064;-52
2021/07/08 06:00:23;;;;;;;10.18;7.05;;;;;;;29.33;100.00;96479.31;5055956;28;20076;-53
2021/07/08 06:02:51;;;;;;;11.80;7.35;;;;;;;29.37;100.00;96482.31;5060210;28;20068;-50
2021/07/08 06:05:21;;;;;;;8.43;7.38;;;;;;;29.31;100.00;96483.34;5063930;28;20060;-55
2021/07/08 06:07:49;;;;;;;9.50;7.75;;;;;;;29.06;100.00;96486.75;5056169;28;20104;-53
2021/07/08 06:10:18;;;;;;;8.25;7.32;;;;;;;29.29;100.00;96486.34;5060982;28;20079;-47
2021/07/08 06:12:48;;;;;;;10.68;7.05;;;;;;;29.39;98.87;96482.03;5060024;28;20064;-48
2021/07/08 06:15:20;;;;;;;9.50;7.32;;;;;;;29.71;96.75;96482.78;5055958;28;20068;-52
2021/07/08 06:17:48;;;;;;;7.53;6.63;;;;;;;29.92;93.35;96480.13;5051606;28;20139;-49
2021/07/08 06:20:18;;;;;;;7.10;6.40;;;;;;;31.04;84.39;96484.88;5057772;28;20455;-51
2021/07/08 06:23:01;;;;;;;7.32;6.50;;;;;;;29.84;88.13;96497.78;5058239;28;20095;-47
2021/07/08 06:25:30;;;;;;;9.52;6.68;;;;;;;30.72;83.83;96481.34;5050499;28;20468;-52
2021/07/08 06:27:59;;;;;;;8.07;6.60;;;;;;;30.47;87.46;96482.16;5054523;28;20464;-53
2021/07/08 06:30:29;;;;;;;9.13;6.68;;;;;;;30.54;86.54;96481.91;5057810;28;20083;-53
2021/07/08 06:32:57;;;;;;;7.18;6.55;;;;;;;30.79;84.94;96488.44;5055615;28;20465;-55
2021/07/08 06:35:25;;;;;;;6.95;6.25;;;;;;;30.19;92.31;96480.75;5050127;28;20135;-51
2021/07/08 06:37:54;;;;;;;8.55;6.80;;;;;;;29.84;94.51;96494.25;5057621;28;20080;-51
2021/07/08 06:40:22;;;;;;;7.22;6.60;;;;;;;30.30;91.23;96499.84;5061212;28;20463;-51
2021/07/08 06:42:51;;;;;;;7.25;6.53;;;;;;;30.26;89.73;96505.00;5056192;28;20085;-51
2021/07/08 06:45:20;;;;;;;7.15;6.45;;;;;;;29.64;98.52;96516.72;5055325;28;20072;-50
2021/07/08 06:47:51;;;;;;;10.70;6.75;;;;;;;29.71;96.34;96511.84;5060019;28;20542;-50
2021/07/08 06:50:21;;;;;;;8.50;6.88;;;;;;;29.95;96.73;96493.19;5062454;28;20075;-48
2021/07/08 06:52:49;;;;;;;7.82;7.03;;;;;;;29.66;99.00;96487.34;5056437;28;20088;-53
2021/07/08 06:55:18;;;;;;;9.07;6.88;;;;;;;29.69;99.49;96481.41;5063030;28;20545;-51
2021/07/08 06:57:53;;;;;;;8.95;6.97;;;;;;;29.52;99.88;96490.53;5058171;28;20552;-50
2021/07/08 07:00:23;;;;;;;9.77;6.95;;;;;;;29.72;98.48;96494.47;5057215;28;20079;-53
2021/07/08 07:02:53;;;;;;;8.20;6.57;;;;;;;29.72;98.13;96498.00;5060420;28;20064;-50
2021/07/08 07:05:22;;;;;;;9.75;6.80;;;;;;;29.50;100.00;96478.31;5059324;28;20056;-53
2021/07/08 07:07:51;;;;;;;7.40;6.70;;;;;;;29.28;100.00;96479.25;5055324;28;20435;-49
2021/07/08 07:10:21;;;;;;;7.90;7.18;;;;;;;29.61;100.00;96487.34;5060461;28;20075;-51
2021/07/08 07:12:52;;;;;;;7.40;6.68;;;;;;;29.49;100.00;96487.53;5059964;28;20075;-49
2021/07/08 07:15:23;;;;;;;7.95;6.97;;;;;;;30.02;97.66;96491.03;5060823;28;20079;-51
2021/07/08 07:17:53;;;;;;;;;;;;;;;29.68;98.79;96501.50;5045095;28;20075;-49
2021/07/08 07:20:21;;;;;;;7.75;6.70;;;;;;;29.68;99.24;96496.09;5064045;28;19963;-52
2021/07/08 07:22:50;;;;;;;8.95;7.07;;;;;;;29.34;100.00;96499.13;5063400;28;20076;-46
2021/07/08 07:25:21;;;;;;;12.38;10.13;;;;;;;28.32;100.00;96501.00;5067102;28;20479;-54
2021/07/08 07:27:51;;;;;;;12.57;11.38;;;;;;;28.13;100.00;96501.38;5063455;28;20096;-54
2021/07/08 07:30:21;;;;;;;13.70;12.20;;;;;;;27.86;100.00;96508.66;5065317;28;20078;-53
2021/07/08 07:32:49;;;;;;;13.93;12.45;;;;;;;27.78;100.00;96501.81;5063648;28;20065;-48
2021/07/08 07:35:20;;;;;;;14.90;13.13;;;;;;;27.74;100.00;96508.78;5058785;28;20075;-51
2021/07/08 07:37:49;;;;;;;15.55;13.20;;;;;;;27.88;100.00;96511.94;5060364;28;20488;-54
2021/07/08 07:40:18;;;;;;;13.90;12.48;;;;;;;28.36;100.00;96513.81;5061772;28;20076;-48
2021/07/08 07:42:46;;;;;;;14.73;13.02;;;;;;;27.73;100.00;96514.44;5061294;28;20075;-52
2021/07/08 07:45:16;;;;;;;14.43;12.88;;;;;;;28.68;100.00;96509.50;5064106;28;20072;-47
2021/07/08 07:47:46;;;;;;;14.73;13.10;;;;;;;28.60;100.00;96502.66;5064058;28;20474;-53
2021/07/08 07:50:15;;;;;;;15.07;12.55;;;;;;;28.72;100.00;96510.63;5063255;28;20471;-52
2021/07/08 07:52:45;;;;;;;14.38;12.48;;;;;;;29.02;100.00;96519.03;5064253;28;20503;-55
2021/07/08 07:55:15;;;;;;;15.25;12.63;;;;;;;28.17;100.00;96521.47;5058642;28;20061;-54
2021/07/08 07:57:46;;;;;;;14.02;12.63;;;;;;;28.00;100.00;96519.94;5061328;28;20075;-48
2021/07/08 08:00:15;;;;;;;15.10;11.95;;;;;;;27.98;100.00;96525.63;5062421;28;20469;-49
2021/07/08 08:02:43;;;;;;;14.52;12.93;;;;;;;27.82;100.00;96531.94;5053545;28;20072;-54
2021/07/08 08:05:36;;;;;;;17.50;12.85;;;;;;;27.07;100.00;96530.56;5059233;28;20068;-52
2021/07/08 08:10:55;;;;;;;14.13;12.65;;;;;;;27.48;100.00;96526.56;5058364;28;20151;-49
2021/07/08 08:13:23;;;;;;;14.18;12.73;;;;;;;28.13;100.00;96535.81;5063109;28;20084;-48
2021/07/08 08:15:53;;;;;;;14.63;12.98;;;;;;;28.06;100.00;96522.44;5063570;28;20079;-54
2021/07/08 08:18:23;;;;;;;14.60;13.20;;;;;;;28.32;100.00;96530.84;5062963;28;20068;-49
2021/07/08 08:20:52;;;;;;;16.85;12.68;;;;;;;28.88;100.00;96533.31;5059374;28;20068;-50
2021/07/08 08:23:22;;;;;;;14.23;12.75;;;;;;;29.42;100.00;96516.84;5060054;28;20064;-53
2021/07/08 08:25:51;;;;;;;16.20;13.02;;;;;;;29.61;100.00;96512.63;5056082;28;20472;-54
2021/07/08 08:28:19;;;;;;;13.80;12.32;;;;;;;29.42;100.00;96516.84;5061482;28;20076;-49
2021/07/08 08:30:48;;;;;;;13.38;11.95;;;;;;;29.51;100.00;96512.53;5056815;28;20071;-52
2021/07/08 08:33:16;;;;;;;13.75;11.77;;;;;;;29.57;100.00;96520.47;5062276;28;20064;-50
2021/07/08 08:35:45;;;;;;;16.88;11.75;;;;;;;29.30;100.00;96519.75;5056033;28;20064;-53
2021/07/08 08:38:13;;;;;;;15.38;11.65;;;;;;;28.38;100.00;96524.41;5058269;28;20064;-50
2021/07/08 08:40:43;;;;;;;13.68;10.98;;;;;;;29.28;100.00;96536.31;5059409;28;20072;-49
2021/07/08 08:43:11;;;;;;;15.90;12.25;;;;;;;28.30;100.00;96539.25;5060178;28;20455;-49
2021/07/08 08:45:40;;;;;;;13.68;11.93;;;;;;;28.84;100.00;96528.38;5062720;28;20435;-48
2021/07/08 08:48:09;;;;;;;15.23;11.93;;;;;;;28.99;100.00;96532.28;5059389;28;20067;-51
2021/07/08 08:50:39;;;;;;;13.90;12.23;;;;;;;29.08;100.00;96541.63;5058871;28;20060;-51
2021/07/08 08:53:09;;;;;;;15.88;12.13;;;;;;;27.71;100.00;96540.97;5063619;28;20060;-54
2021/07/08 08:55:37;;;;;;;13.45;12.15;;;;;;;28.54;100.00;96547.13;5060260;28;20087;-51
2021/07/08 08:58:09;;;;;;;12.32;11.15;;;;;;;29.07;100.00;96548.13;5057380;28;20052;-54
2021/07/08 09:00:40;;;;;;;11.98;10.82;;;;;;;30.15;100.00;96546.84;5063380;28;20091;-53
2021/07/08 09:03:11;;;;;;;12.77;10.75;;;;;;;29.93;100.00;96547.00;5061043;28;20634;-54
2021/07/08 09:05:41;;;;;;;12.73;10.77;;;;;;;31.04;91.38;96539.34;5056156;28;20114;-54
2021/07/08 09:08:15;;;;;;;11.15;10.05;;;;;;;29.15;100.00;96549.53;5052577;28;20075;-52
2021/07/08 09:10:44;;;;;;;12.73;11.05;;;;;;;29.70;100.00;96556.44;5057878;28;20223;-48
2021/07/08 09:13:15;;;;;;;13.05;10.38;;;;;;;29.46;100.00;96558.72;5058527;28;20335;-47
2021/07/08 09:15:44;;;;;;;12.27;10.15;;;;;;;28.98;100.00;96560.53;5047705;28;20044;-49
2021/07/08 09:18:19;;;;;;;11.02;9.93;;;;;;;28.12;100.00;96561.28;5058019;28;20041;-47
2021/07/08 09:20:48;;;;;;;14.63;10.30;;;;;;;27.71;100.00;96555.34;5059563;28;20073;-46
2021/07/08 09:23:19;;;;;;;12.40;11.27;;;;;;;28.42;100.00;96554.56;5062561;28;20048;-46
2021/07/08 09:25:47;;;;;;;12.18;10.90;;;;;;;29.44;100.00;96548.09;5057453;28;20076;-51
2021/07/08 09:28:21;;;;;;;14.23;9.98;;;;;;;31.07;94.11;96545.06;5062269;28;20080;-47
2021/07/08 09:30:58;;;;;;;12.82;11.38;;;;;;;30.93;91.63;96549.44;5059352;28;20064;-46
2021/07/08 09:33:47;;;;;;;12.40;11.20;;;;;;;31.33;83.40;96547.81;5065018;28;20518;-49
2021/07/08 09:36:17;;;;;;;13.30;10.18;;;;;;;30.65;92.89;96565.19;5056798;28;20572;-48
2021/07/08 09:38:57;;;;;;;12.25;9.80;;;;;;;29.49;100.00;96561.72;5057903;28;20065;-48
2021/07/08 09:41:28;;;;;;;10.77;9.77;;;;;;;29.51;100.00;96564.19;5063548;28;20067;-55
2021/07/08 09:43:58;;;;;;;11.52;9.95;;;;;;;29.18;100.00;96558.00;5057851;28;20091;-47
2021/07/08 09:46:35;;;;;;;12.20;10.88;;;;;;;29.25;100.00;96547.72;5057818;28;20087;-49
2021/07/08 09:49:05;;;;;;;17.42;11.68;;;;;;;29.42;100.00;96539.41;5057988;28;20068;-53
2021/07/08 09:51:34;;;;;;;13.77;12.40;;;;;;;29.49;100.00;96537.28;5056730;28;20075;-51
2021/07/08 09:54:10;;;;;;;16.23;12.23;;;;;;;29.56;100.00;96528.91;5055423;28;20069;-52
2021/07/08 09:56:45;;;;;;;15.00;13.50;;;;;;;29.61;100.00;96526.22;5057604;28;20759;-47
2021/07/08 09:59:16;;;;;;;17.88;16.02;;;;;;;27.98;100.00;96527.47;5058530;28;20075;-47
2021/07/08 10:01:45;;;;;;;18.55;16.48;;;;;;;28.49;100.00;96517.19;5059822;28;20087;-50
2021/07/08 10:04:14;;;;;;;17.90;16.02;;;;;;;30.24;98.10;96507.16;5058749;28;20079;-53
2021/07/08 10:06:43;;;;;;;16.77;15.07;;;;;;;31.31;83.07;96495.47;5059288;28;20083;-53
2021/07/08 10:09:16;;;;;;;16.67;14.98;;;;;;;32.23;71.55;96497.88;5055255;28;20064;-53
2021/07/08 10:11:46;;;;;;;15.60;14.18;;;;;;;32.65;65.22;96491.88;5058329;28;20079;-49
2021/07/08 10:14:17;;;;;;;16.10;14.45;;;;;;;33.62;61.00;96492.88;5060719;28;20068;-53
2021/07/08 10:16:49;;;;;;;15.93;14.52;;;;;;;33.28;59.31;96491.88;5059174;28;20084;-49
2021/07/08 10:19:19;;;;;;;15.30;13.90;;;;;;;34.18;58.24;96505.91;5067678;28;20075;-52
2021/07/08 10:21:49;;;;;;;16.98;14.27;;;;;;;33.90;56.64;96502.94;5061078;28;20075;-51
2021/07/08 10:24:21;;;;;;;14.75;13.32;;;;;;;33.07;60.39;96513.13;5055413;28;20072;-49
2021/07/08 10:26:50;;;;;;;15.05;13.65;;;;;;;33.12;62.53;96523.19;5056382;28;20082;-53
2021/07/08 10:29:20;;;;;;;15.55;14.10;;;;;;;30.65;85.86;96527.06;5059172;28;20060;-51
2021/07/08 10:31:50;;;;;;;15.05;13.65;;;;;;;31.48;83.73;96525.97;5057486;28;20080;-55
2021/07/08 10:34:20;;;;;;;14.35;12.85;;;;;;;32.17;71.68;96527.09;5055549;28;20087;-49
2021/07/08 10:36:50;;;;;;;15.20;13.80;;;;;;;33.05;63.99;96539.91;5059239;28;20060;-52
2021/07/08 10:39:20;;;;;;;15.32;13.85;;;;;;;33.22;64.33;96535.94;5059835;28;20064;-50
2021/07/08 10:41:54;;;;;;;15.43;13.85;;;;;;;32.35;69.15;96525.66;5060702;28;20072;-45
2021/07/08 10:44:48;;;;;;;14.98;13.48;;;;;;;31.98;75.26;96526.13;5055357;28;20075;-49
2021/07/08 10:47:37;;;;;;;15.98;14.32;;;;;;;31.72;76.80;96537.06;5065443;28;20057;-48
2021/07/08 10:50:09;;;;;;;14.67;13.37;;;;;;;31.39;76.15;96549.44;5058141;28;20091;-53
2021/07/08 10:52:43;;;;;;;17.65;14.65;;;;;;;31.91;77.91;96554.50;5062128;28;20095;-49
2021/07/08 10:55:13;;;;;;;16.35;14.85;;;;;;;31.80;76.60;96558.34;5059686;28;20048;-50
2021/07/08 10:57:42;;;;;;;;;;;;;;;31.52;82.61;96556.22;5061298;28;20446;-48
2021/07/08 11:00:45;;;;;;;17.63;15.82;;;;;;;32.41;73.16;96549.06;5060059;28;19963;-47
2021/07/08 11:03:39;;;;;;;18.58;16.77;;;;;;;33.19;67.38;96542.00;5063641;28;20057;-48
2021/07/08 11:06:15;;;;;;;19.05;17.05;;;;;;;31.13;83.25;96546.72;5066873;28;20060;-46
2021/07/08 11:09:02;;;;;;;18.83;17.02;;;;;;;31.91;78.60;96550.97;5053607;28;20084;-48
2021/07/08 11:12:02;;;;;;;19.52;17.52;;;;;;;31.49;78.93;96537.69;5060186;28;20112;-49
2021/07/08 11:14:32;;;;;;;19.35;17.35;;;;;;;30.60;92.27;96526.28;5065929;28;20068;-49
2021/07/08 11:17:16;;;;;;;19.33;17.45;;;;;;;30.70;88.45;96520.84;5059178;28;20192;-46
2021/07/08 11:19:50;;;;;;;18.38;16.67;;;;;;;31.27;86.11;96524.34;5065134;28;20459;-49
2021/07/08 11:22:33;;;;;;;19.02;17.23;;;;;;;29.79;97.72;96536.63;5063654;28;20095;-49
2021/07/08 11:25:11;;;;;;;18.40;16.48;;;;;;;31.81;79.51;96531.88;5056753;28;20076;-48
2021/07/08 11:27:45;;;;;;;18.02;16.33;;;;;;;31.35;82.22;96540.16;5066535;28;20083;-46
2021/07/08 11:30:29;;;;;;;17.48;15.88;;;;;;;32.37;74.38;96559.72;5065517;28;20064;-50
2021/07/08 11:33:05;;;;;;;18.52;16.83;;;;;;;31.79;77.81;96558.59;5062572;28;20064;-49
2021/07/08 11:35:36;;;;;;;18.75;16.80;;;;;;;31.75;79.34;96539.25;5057372;28;20072;-49
2021/07/08 11:38:07;;;;;;;16.65;14.95;;;;;;;31.33;89.35;96543.19;5064437;28;20060;-48
2021/07/08 11:40:38;;;;;;;17.70;15.98;;;;;;;30.60;95.33;96550.78;5062340;28;20083;-51